createdAt,value
2023-04-15T00:00:04.151Z,7.95
2023-04-15T00:03:28.888Z,8.10
2023-04-15T00:06:53.151Z,8.28
2023-04-15T00:10:17.206Z,8.41
2023-04-15T00:13:39.581Z,8.53
2023-04-15T00:17:01.423Z,8.57
2023-04-15T00:20:25.539Z,8.26
2023-04-15T00:23:52.604Z,8.34
2023-04-15T00:27:14.412Z,8.28
2023-04-15T00:30:38.181Z,8.13
2023-04-15T00:34:00.540Z,8.30
2023-04-15T00:37:22.700Z,8.32
2023-04-15T00:40:44.525Z,8.34
2023-04-15T00:44:07.293Z,8.29
2023-04-15T00:47:29.953Z,8.22
2023-04-15T00:50:52.021Z,8.07
2023-04-15T00:54:16.313Z,8.07
2023-04-15T00:57:45.062Z,8.20
2023-04-15T01:01:06.674Z,8.28
2023-04-15T01:04:30.890Z,8.28
2023-04-15T01:07:53.074Z,8.23
2023-04-15T01:11:15.777Z,8.14
2023-04-15T01:14:39.721Z,8.12
2023-04-15T01:18:03.211Z,8.12
2023-04-15T01:21:25.269Z,8.09
2023-04-15T01:24:57.132Z,8.09
2023-04-15T01:28:18.872Z,8.10
2023-04-15T01:31:40.598Z,8.09
2023-04-15T01:35:04.942Z,8.13
2023-04-15T01:38:33.330Z,8.06
2023-04-15T01:41:54.889Z,8.05
2023-04-15T01:45:16.772Z,8.19
2023-04-15T01:48:41.384Z,8.16
2023-04-15T01:52:03.051Z,8.36
2023-04-15T01:55:24.614Z,8.44
2023-04-15T01:58:48.497Z,8.22
2023-04-15T02:02:12.656Z,8.19
2023-04-15T02:05:39.149Z,8.33
2023-04-15T02:09:04.345Z,8.22
2023-04-15T02:12:28.221Z,8.23
2023-04-15T02:15:52.433Z,8.37
2023-04-15T02:19:16.319Z,8.37
2023-04-15T02:22:37.880Z,8.22
2023-04-15T02:26:00.063Z,8.17
2023-04-15T02:29:22.949Z,8.39
2023-04-15T02:32:45.302Z,8.26
2023-04-15T02:36:08.366Z,8.14
2023-04-15T02:39:35.297Z,8.19
2023-04-15T02:43:00.388Z,8.41
2023-04-15T02:46:24.176Z,8.59
2023-04-15T02:49:48.378Z,8.37
2023-04-15T02:53:14.629Z,8.36
2023-04-15T02:56:38.821Z,8.36
2023-04-15T03:00:05.979Z,8.29
2023-04-15T03:03:28.694Z,8.29
2023-04-15T03:06:50.692Z,8.40
2023-04-15T03:10:15.557Z,8.63
2023-04-15T03:13:41.835Z,8.64
2023-04-15T03:17:03.496Z,8.65
2023-04-15T03:20:25.127Z,8.53
2023-04-15T03:23:49.847Z,8.50
2023-04-15T03:27:11.444Z,8.44
2023-04-15T03:30:33.112Z,8.70
2023-04-15T03:33:54.714Z,8.50
2023-04-15T03:37:16.528Z,8.77
2023-04-15T03:40:39.424Z,8.81
2023-04-15T03:44:03.554Z,8.88
2023-04-15T03:47:25.166Z,9.05
2023-04-15T03:50:49.322Z,8.92
2023-04-15T03:54:15.322Z,9.18
2023-04-15T03:57:39.081Z,8.97
2023-04-15T04:01:01.082Z,8.78
2023-04-15T04:04:28.211Z,8.85
2023-04-15T04:07:50.166Z,8.72
2023-04-15T04:11:11.821Z,8.84
2023-04-15T04:14:35.699Z,8.64
2023-04-15T04:17:57.323Z,8.51
2023-04-15T04:21:21.733Z,8.51
2023-04-15T04:24:43.347Z,8.51
2023-04-15T04:28:07.411Z,8.72
2023-04-15T04:31:31.709Z,8.87
2023-04-15T04:34:53.369Z,8.82
2023-04-15T04:38:14.948Z,8.88
2023-04-15T04:41:41.784Z,8.95
2023-04-15T04:45:03.567Z,9.09
2023-04-15T04:48:25.193Z,9.15
2023-04-15T04:51:49.746Z,9.30
2023-04-15T04:55:11.688Z,9.50
2023-04-15T04:58:33.263Z,9.43
2023-04-15T05:01:57.263Z,9.39
2023-04-15T05:05:21.508Z,9.53
2023-04-15T05:08:43.467Z,9.42
2023-04-15T05:12:05.436Z,9.46
2023-04-15T05:15:27.080Z,9.18
2023-04-15T05:18:53.713Z,9.22
2023-04-15T05:22:15.584Z,9.27
2023-04-15T05:25:37.249Z,9.32
2023-04-15T05:28:58.994Z,9.42
2023-04-15T05:32:20.855Z,9.44
2023-04-15T05:35:45.439Z,9.74
2023-04-15T05:39:07.180Z,10.09
2023-04-15T05:42:30.945Z,10.33
2023-04-15T05:45:57.139Z,10.33
2023-04-15T05:49:21.212Z,10.38
2023-04-15T05:52:46.111Z,10.28
2023-04-15T05:56:08.108Z,10.15
2023-04-15T05:59:34.731Z,9.81
2023-04-15T06:03:02.146Z,9.75
2023-04-15T06:06:24.294Z,9.74
2023-04-15T06:09:46.023Z,9.85
2023-04-15T06:13:08.054Z,10.05
2023-04-15T06:16:29.648Z,10.02
2023-04-15T06:19:56.521Z,10.15
2023-04-15T06:23:22.578Z,10.06
2023-04-15T06:26:44.217Z,10.11
2023-04-15T06:30:09.238Z,10.22
2023-04-15T06:33:31.784Z,10.11
2023-04-15T06:36:57.906Z,10.15
2023-04-15T06:40:24.775Z,10.22
2023-04-15T06:43:46.733Z,10.39
2023-04-15T06:47:09.205Z,10.59
2023-04-15T06:50:30.894Z,10.84
2023-04-15T06:53:55.064Z,10.93
2023-04-15T06:57:16.678Z,10.96
2023-04-15T07:00:39.330Z,11.00
2023-04-15T07:04:01.372Z,10.87
2023-04-15T07:07:22.922Z,10.98
2023-04-15T07:10:44.632Z,10.85
2023-04-15T07:14:06.864Z,11.22
2023-04-15T07:17:28.512Z,11.32
2023-04-15T07:20:50.098Z,11.52
2023-04-15T07:24:16.948Z,11.90
2023-04-15T07:27:38.536Z,11.91
2023-04-15T07:31:00.269Z,11.80
2023-04-15T07:34:24.643Z,12.42
2023-04-15T07:37:48.734Z,12.86
2023-04-15T07:41:10.661Z,13.37
2023-04-15T07:44:34.792Z,13.69
2023-04-15T07:47:56.812Z,13.93
2023-04-15T07:51:23.720Z,14.10
2023-04-15T07:54:45.655Z,14.45
2023-04-15T07:58:07.269Z,14.20
2023-04-15T08:01:31.593Z,13.59
2023-04-15T08:04:54.116Z,13.57
2023-04-15T08:08:15.755Z,13.90
2023-04-15T08:11:40.363Z,14.01
2023-04-15T08:15:04.629Z,14.26
2023-04-15T08:18:30.945Z,13.57
2023-04-15T08:21:52.574Z,13.55
2023-04-15T08:25:16.677Z,13.82
2023-04-15T08:28:40.215Z,14.27
2023-04-15T08:32:02.138Z,14.29
2023-04-15T08:35:23.720Z,14.29
2023-04-15T08:38:45.697Z,13.68
2023-04-15T08:42:16.495Z,13.53
2023-04-15T08:45:40.220Z,13.28
2023-04-15T08:49:05.149Z,13.07
2023-04-15T08:52:27.333Z,13.00
2023-04-15T08:55:52.444Z,13.06
2023-04-15T08:59:16.546Z,13.07
2023-04-15T09:02:39.308Z,12.90
2023-04-15T09:06:04.145Z,13.03
2023-04-15T09:09:27.954Z,13.23
2023-04-15T09:12:49.806Z,13.31
2023-04-15T09:16:13.785Z,13.14
2023-04-15T09:19:35.542Z,13.18
2023-04-15T09:22:59.339Z,13.40
2023-04-15T09:26:40.458Z,13.30
2023-04-15T09:30:11.174Z,13.40
2023-04-15T09:33:32.868Z,13.50
2023-04-15T09:36:56.939Z,13.64
2023-04-15T09:40:36.088Z,13.55
2023-04-15T09:43:57.799Z,13.37
2023-04-15T09:47:34.584Z,13.30
2023-04-15T09:50:58.696Z,13.36
2023-04-15T09:54:26.611Z,13.61
2023-04-15T09:57:50.554Z,13.11
2023-04-15T10:01:12.447Z,13.04
2023-04-15T10:04:37.429Z,13.38
2023-04-15T10:07:59.391Z,13.75
2023-04-15T10:11:25.135Z,13.99
2023-04-15T10:14:56.870Z,13.66
2023-04-15T10:18:21.751Z,13.38
2023-04-15T10:21:46.326Z,13.43
2023-04-15T10:25:11.074Z,13.36
2023-04-15T10:28:32.696Z,13.21
2023-04-15T10:31:58.550Z,13.61
2023-04-15T10:35:22.460Z,13.68
2023-04-15T10:38:48.331Z,13.62
2023-04-15T10:42:16.892Z,13.64
2023-04-15T10:45:38.376Z,13.33
2023-04-15T10:49:08.317Z,13.66
2023-04-15T10:52:29.918Z,13.37
2023-04-15T10:55:56.513Z,13.23
2023-04-15T10:59:18.118Z,13.02
2023-04-15T11:02:59.096Z,12.96
2023-04-15T11:06:20.837Z,12.90
2023-04-15T11:09:42.400Z,12.63
2023-04-15T11:13:14.968Z,12.63
2023-04-15T11:16:45.540Z,12.52
2023-04-15T11:20:09.100Z,12.40
2023-04-15T11:23:35.458Z,12.52
2023-04-15T11:27:02.341Z,12.48
2023-04-15T11:30:35.060Z,12.34
2023-04-15T11:33:59.449Z,12.65
2023-04-15T11:37:32.312Z,12.97
2023-04-15T11:40:56.279Z,13.03
2023-04-15T11:44:22.851Z,13.21
2023-04-15T11:47:44.466Z,13.27
2023-04-15T11:51:07.813Z,12.95
2023-04-15T11:54:29.405Z,12.90
2023-04-15T11:58:26.698Z,13.09
2023-04-15T12:01:52.447Z,13.34
2023-04-15T12:05:14.155Z,13.55
2023-04-15T12:09:09.810Z,13.02
2023-04-15T12:12:31.509Z,12.90
2023-04-15T12:15:55.861Z,13.00
2023-04-15T12:19:46.089Z,13.16
2023-04-15T12:23:10.599Z,13.28
2023-04-15T12:26:43.650Z,13.28
2023-04-15T12:30:05.994Z,13.16
2023-04-15T12:33:36.230Z,13.16
2023-04-15T12:36:59.458Z,13.03
2023-04-15T12:40:21.146Z,12.92
2023-04-15T12:43:48.031Z,12.80
2023-04-15T12:47:10.987Z,12.65
2023-04-15T12:50:32.602Z,12.59
2023-04-15T12:53:54.611Z,12.65
2023-04-15T12:57:18.389Z,12.44
2023-04-15T13:00:40.182Z,12.61
2023-04-15T13:04:02.309Z,12.76
2023-04-15T13:07:27.024Z,12.89
2023-04-15T13:10:48.609Z,13.00
2023-04-15T13:14:13.694Z,12.92
2023-04-15T13:17:38.852Z,12.88
2023-04-15T13:21:01.308Z,12.75
2023-04-15T13:24:22.835Z,12.73
2023-04-15T13:27:44.583Z,12.79
2023-04-15T13:31:08.948Z,12.83
2023-04-15T13:34:33.509Z,12.85
2023-04-15T13:37:59.808Z,12.92
2023-04-15T13:41:21.467Z,12.79
2023-04-15T13:44:43.090Z,12.69
2023-04-15T13:48:04.821Z,12.72
2023-04-15T13:51:28.948Z,12.89
2023-04-15T13:55:07.294Z,12.69
2023-04-15T13:58:40.467Z,12.58
2023-04-15T14:02:04.612Z,12.55
2023-04-15T14:05:26.416Z,12.58
2023-04-15T14:08:50.423Z,12.62
2023-04-15T14:12:14.857Z,12.63
2023-04-15T14:15:36.497Z,12.72
2023-04-15T14:19:01.076Z,12.70
2023-04-15T14:22:22.689Z,12.68
2023-04-15T14:25:48.391Z,12.70
2023-04-15T14:29:10.480Z,12.65
2023-04-15T14:32:32.087Z,12.70
2023-04-15T14:35:53.750Z,12.59
2023-04-15T14:39:15.337Z,12.59
2023-04-15T14:42:36.974Z,12.51
2023-04-15T14:45:58.582Z,12.62
2023-04-15T14:49:22.917Z,12.70
2023-04-15T14:52:44.508Z,12.75
2023-04-15T14:56:09.401Z,12.82
2023-04-15T14:59:31.008Z,12.73
2023-04-15T15:02:54.899Z,12.80
2023-04-15T15:06:18.753Z,12.78
2023-04-15T15:09:40.464Z,12.73
2023-04-15T15:13:06.274Z,12.55
2023-04-15T15:16:30.370Z,12.66
2023-04-15T15:19:57.474Z,12.78
2023-04-15T15:23:19.135Z,12.92
2023-04-15T15:26:42.810Z,13.13
2023-04-15T15:30:04.627Z,13.40
2023-04-15T15:33:27.168Z,13.58
2023-04-15T15:36:49.686Z,13.28
2023-04-15T15:40:12.170Z,13.04
2023-04-15T15:43:33.968Z,13.31
2023-04-15T15:46:58.689Z,13.28
2023-04-15T15:50:22.964Z,13.23
2023-04-15T15:53:44.894Z,13.03
2023-04-15T15:57:09.324Z,12.88
2023-04-15T16:00:31.025Z,12.58
2023-04-15T16:03:55.041Z,12.65
2023-04-15T16:07:16.840Z,12.58
2023-04-15T16:10:43.100Z,12.52
2023-04-15T16:14:07.195Z,12.34
2023-04-15T16:17:28.798Z,12.31
2023-04-15T16:20:55.364Z,12.35
2023-04-15T16:24:17.269Z,12.27
2023-04-15T16:31:03.647Z,12.32
2023-04-15T16:34:25.243Z,12.37
2023-04-15T16:37:49.303Z,12.34
2023-04-15T16:41:11.082Z,12.32
2023-04-15T16:44:34.931Z,12.24
2023-04-15T16:47:58.798Z,12.23
2023-04-15T16:51:25.904Z,12.21
2023-04-15T16:54:49.855Z,12.24
2023-04-15T16:58:12.212Z,12.25
2023-04-15T17:01:33.895Z,12.30
2023-04-15T17:04:57.784Z,12.34
2023-04-15T17:08:19.350Z,12.65
2023-04-15T17:11:41.063Z,12.85
2023-04-15T17:15:03.168Z,13.21
2023-04-15T17:18:27.004Z,13.10
2023-04-15T17:21:48.561Z,13.10
2023-04-15T17:25:10.354Z,12.99
2023-04-15T17:28:34.100Z,12.99
2023-04-15T17:32:00.658Z,12.72
2023-04-15T17:35:23.425Z,12.53
2023-04-15T17:38:45.724Z,12.51
2023-04-15T17:42:07.278Z,12.62
2023-04-15T17:45:31.521Z,12.72
2023-04-15T17:48:53.108Z,13.03
2023-04-15T17:52:17.030Z,13.21
2023-04-15T17:55:43.296Z,13.40
2023-04-15T17:59:07.660Z,13.50
2023-04-15T18:02:32.694Z,13.43
2023-04-15T18:05:55.999Z,13.07
2023-04-15T18:09:17.574Z,12.78
2023-04-15T18:12:39.588Z,12.48
2023-04-15T18:16:01.184Z,12.40
2023-04-15T18:19:25.786Z,12.23
2023-04-15T18:22:47.443Z,12.04
2023-04-15T18:26:11.661Z,11.84
2023-04-15T18:29:34.512Z,11.67
2023-04-15T18:32:58.492Z,11.61
2023-04-15T18:36:22.421Z,11.72
2023-04-15T18:39:44.025Z,11.77
2023-04-15T18:43:05.715Z,11.86
2023-04-15T18:46:28.262Z,11.83
2023-04-15T18:49:49.831Z,11.82
2023-04-15T18:53:11.494Z,12.13
2023-04-15T18:56:35.306Z,12.41
2023-04-15T18:59:57.366Z,12.56
2023-04-15T19:03:23.551Z,12.78
2023-04-15T19:06:45.403Z,12.83
2023-04-15T19:10:07.938Z,12.82
2023-04-15T19:13:29.733Z,12.37
2023-04-15T19:16:53.716Z,12.03
2023-04-15T19:20:17.724Z,11.73
2023-04-15T19:23:39.733Z,11.49
2023-04-15T19:27:03.664Z,11.31
2023-04-15T19:30:32.339Z,11.46
2023-04-15T19:33:53.975Z,11.52
2023-04-15T19:37:17.760Z,11.45
2023-04-15T19:40:42.203Z,11.38
2023-04-15T19:44:06.756Z,11.29
2023-04-15T19:47:28.615Z,11.49
2023-04-15T19:50:52.384Z,11.76
2023-04-15T19:54:13.964Z,11.98
2023-04-15T19:57:35.606Z,12.10
2023-04-15T20:00:57.528Z,12.08
2023-04-15T20:04:19.258Z,11.79
2023-04-15T20:07:45.206Z,11.56
2023-04-15T20:11:09.770Z,11.43
2023-04-15T20:14:31.372Z,11.45
2023-04-15T20:17:53.063Z,11.10
2023-04-15T20:21:14.704Z,10.87
2023-04-15T20:24:36.330Z,10.88
2023-04-15T20:28:01.224Z,10.87
2023-04-15T20:31:22.982Z,10.80
2023-04-15T20:34:44.831Z,10.74
2023-04-15T20:38:06.483Z,10.79
2023-04-15T20:41:32.592Z,10.84
2023-04-15T20:44:54.530Z,10.94
2023-04-15T20:48:16.198Z,11.10
2023-04-15T20:51:38.048Z,11.08
2023-04-15T20:54:59.751Z,11.11
2023-04-15T20:58:21.482Z,11.10
2023-04-15T21:01:43.520Z,11.10
2023-04-15T21:05:05.824Z,10.88
2023-04-15T21:08:29.720Z,10.64
2023-04-15T21:15:16.130Z,10.77
2023-04-15T21:18:37.736Z,10.73
2023-04-15T21:21:59.714Z,10.79
2023-04-15T21:25:23.483Z,10.52
2023-04-15T21:28:45.443Z,10.41
2023-04-15T21:32:07.253Z,10.52
2023-04-15T21:35:30.327Z,10.43
2023-04-15T21:38:51.976Z,10.50
2023-04-15T21:42:15.861Z,10.33
2023-04-15T21:45:42.986Z,10.31
2023-04-15T21:49:26.761Z,10.59
2023-04-15T21:52:48.312Z,10.45
2023-04-15T21:56:10.106Z,10.41
2023-04-15T21:59:31.702Z,10.42
2023-04-15T22:02:56.102Z,10.52
2023-04-15T22:06:20.106Z,10.39
2023-04-15T22:09:44.403Z,10.29
2023-04-15T22:13:10.984Z,10.15
2023-04-15T22:16:37.244Z,9.95
2023-04-15T22:19:58.841Z,9.87
2023-04-15T22:23:22.675Z,9.98
2023-04-15T22:26:46.543Z,10.11
2023-04-15T22:30:08.814Z,10.04
2023-04-15T22:33:30.394Z,9.99
2023-04-15T22:36:54.545Z,10.02
2023-04-15T22:40:16.509Z,9.95
2023-04-15T22:43:38.179Z,9.85
2023-04-15T22:47:02.291Z,9.78
2023-04-15T22:50:23.954Z,9.83
2023-04-15T22:53:47.769Z,9.74
2023-04-15T22:57:09.453Z,9.95
2023-04-15T23:00:31.109Z,9.94
2023-04-15T23:03:56.265Z,10.05
2023-04-15T23:07:28.196Z,10.12
2023-04-15T23:10:50.730Z,10.02
2023-04-15T23:14:15.013Z,9.91
2023-04-15T23:17:41.198Z,9.83
2023-04-15T23:21:05.498Z,9.75
2023-04-15T23:24:27.125Z,9.78
2023-04-15T23:27:48.673Z,9.67
2023-04-15T23:31:11.486Z,9.58
2023-04-15T23:34:35.142Z,9.70
2023-04-15T23:37:59.063Z,9.78
2023-04-15T23:41:22.113Z,9.75
2023-04-15T23:44:43.718Z,9.78
2023-04-15T23:48:06.259Z,9.85
2023-04-15T23:51:30.062Z,9.93
2023-04-15T23:54:53.900Z,9.73
2023-04-15T23:58:15.636Z,9.53
